Observation data for Memphis on 01/16/2019      Previous  Date  Next       Current Mesonet Observations  Soil Data  Daily Summary Page  Observations in Plain Language
KMES 160600Z 05000KT 02/01 A3009 RMK A01 T00230013  RH  094%=      5-min Rain = 0
KMES 160605Z 00000KT 02/01 A3009 RMK A01 T00190011  RH  095%=      5-min Rain = 0
KMES 160610Z 32001KT 02/01 A3009 RMK A01 T00190011  RH  096%=      5-min Rain = 0
KMES 160615Z 31002KT 02/01 A3009 RMK A01 T00170009  RH  096%=      5-min Rain = 0
KMES 160620Z 31002KT 02/01 A3009 RMK A01 T00160008  RH  096%=      5-min Rain = 0
KMES 160625Z 30002KT 02/01 A3009 RMK A01 T00150008  RH  096%=      5-min Rain = 0
KMES 160630Z 29002KT 02/01 A3009 RMK A01 T00150008  RH  096%=      5-min Rain = 0
KMES 160635Z 26002KT 01/01 A3009 RMK A01 T00140006  RH  096%=      5-min Rain = 0
KMES 160640Z 27002KT 01/01 A3009 RMK A01 T00130006  RH  096%=      5-min Rain = 0
KMES 160645Z 31003KT 01/01 A3009 RMK A01 T00130007  RH  097%=      5-min Rain = 0
KMES 160650Z 31002KT 01/01 A3009 RMK A01 T00120005  RH  096%=      5-min Rain = 0
KMES 160655Z 34002KT 01/M00 A3008 RMK A01 T00071001  RH  096%=      5-min Rain = 0
KMES 160700Z 01002KT 00/M00 A3008 RMK A01 T00041003  RH  096%=      5-min Rain = 0
KMES 160705Z 00002KT 00/M00 A3008 RMK A01 T00041002  RH  097%=      5-min Rain = 0
KMES 160710Z 01002KT 01/M00 A3008 RMK A01 T00051001  RH  097%=      5-min Rain = 0
KMES 160715Z 02002KT 00/M00 A3008 RMK A01 T00031003  RH  097%=      5-min Rain = 0
KMES 160720Z 01002KT 00/M00 A3007 RMK A01 T00031003  RH  097%=      5-min Rain = 0
KMES 160725Z 34003KT 01/00 A3008 RMK A01 T00050000  RH  098%=      5-min Rain = 0
KMES 160730Z 34003KT 01/00 A3008 RMK A01 T00070002  RH  098%=      5-min Rain = 0
KMES 160735Z 00002KT 01/00 A3008 RMK A01 T00060001  RH  097%=      5-min Rain = 0
KMES 160740Z 01002KT 01/00 A3007 RMK A01 T00050000  RH  097%=      5-min Rain = 0
KMES 160745Z 01001KT 01/00 A3007 RMK A01 T000500-0  RH  098%=      5-min Rain = 0
KMES 160750Z 35000KT 01/00 A3007 RMK A01 T000500-0  RH  098%=      5-min Rain = 0
KMES 160755Z 35001KT 00/M00 A3007 RMK A01 T00031002  RH  098%=      5-min Rain = 0
KMES 160800Z 35002KT 00/M00 A3007 RMK A01 T00031001  RH  098%=      5-min Rain = 0
KMES 160805Z 34001KT 00/M00 A3007 RMK A01 T00031002  RH  098%=      5-min Rain = 0
KMES 160810Z 34002KT 00/M00 A3008 RMK A01 T00031002  RH  098%=      5-min Rain = 0
KMES 160815Z 34002KT 00/M00 A3007 RMK A01 T00031001  RH  098%=      5-min Rain = 0
KMES 160820Z 34003KT 00/M00 A3007 RMK A01 T00031001  RH  098%=      5-min Rain = 0
KMES 160825Z 34002KT 00/00 A3007 RMK A01 T000400-0  RH  098%=      5-min Rain = 0
KMES 160830Z 35002KT 01/00 A3007 RMK A01 T00050001  RH  098%=      5-min Rain = 0
KMES 160835Z 00002KT 00/M00 A3007 RMK A01 T00041001  RH  098%=      5-min Rain = 0
KMES 160840Z 02002KT 00/M00 A3007 RMK A01 T00031001  RH  098%=      5-min Rain = 0
KMES 160845Z 04002KT 00/M00 A3007 RMK A01 T00011003  RH  098%=      5-min Rain = 0
KMES 160850Z 03001KT 00/00 A3007 RMK A01 T000000-4  RH  098%=      5-min Rain = 0
KMES 160855Z 04001KT 00/00 A3007 RMK A01 T000000-4  RH  098%=      5-min Rain = 0
KMES 160900Z 02000KT M00/M01 A3007 RMK A01 T10011005  RH  098%=      5-min Rain = 0
KMES 160905Z 33001KT M00/M01 A3008 RMK A01 T10011005  RH  098%=      5-min Rain = 0
KMES 160910Z 01002KT M00/M01 A3007 RMK A01 T10031008  RH  098%=      5-min Rain = 0
KMES 160915Z 01002KT M01/M01 A3007 RMK A01 T10091014  RH  098%=      5-min Rain = 0
KMES 160920Z 02002KT M01/M01 A3007 RMK A01 T10091011  RH  099%=      5-min Rain = 0
KMES 160925Z 03002KT M01/M01 A3007 RMK A01 T10061008  RH  099%=      5-min Rain = 0
KMES 160930Z 02002KT M01/M01 A3007 RMK A01 T10071010  RH  099%=      5-min Rain = 0
KMES 160935Z 35001KT M01/M01 A3007 RMK A01 T10061009  RH  099%=      5-min Rain = 0
KMES 160940Z 31000KT M01/M01 A3007 RMK A01 T10051008  RH  099%=      5-min Rain = 0
KMES 160945Z 32000KT M01/M01 A3007 RMK A01 T10091012  RH  098%=      5-min Rain = 0
KMES 160950Z 33001KT M01/M01 A3007 RMK A01 T10101012  RH  099%=      5-min Rain = 0
KMES 160955Z 33003KT M01/M01 A3007 RMK A01 T10081010  RH  099%=      5-min Rain = 0
KMES 161000Z 33003KT M00/M01 A3007 RMK A01 T10041006  RH  100%=      5-min Rain = 0
KMES 161005Z 33004KT M00/M00 A3007 RMK A01 T10011003  RH  100%=      5-min Rain = 0
KMES 161010Z 31003KT 00/00 A3007 RMK A01 T000200-0  RH  100%=      5-min Rain = 0
KMES 161015Z 31001KT 00/00 A3007 RMK A01 T000200-0  RH  099%=      5-min Rain = 0
KMES 161020Z 31000KT 00/M00 A3006 RMK A01 T00021001  RH  099%=      5-min Rain = 0
KMES 161025Z 00000KT 00/00 A3006 RMK A01 T00-000-3  RH  099%=      5-min Rain = 0
KMES 161030Z 33000KT M00/M01 A3006 RMK A01 T10031005  RH  099%=      5-min Rain = 0
KMES 161035Z 32001KT M00/M01 A3006 RMK A01 T10041006  RH  099%=      5-min Rain = 0
KMES 161040Z 34002KT M01/M01 A3005 RMK A01 T10051007  RH  099%=      5-min Rain = 0
KMES 161045Z 34002KT M01/M01 A3005 RMK A01 T10061008  RH  099%=      5-min Rain = 0
KMES 161050Z 35000KT M01/M01 A3005 RMK A01 T10061008  RH  100%=      5-min Rain = 0
KMES 161055Z 01001KT M01/M01 A3004 RMK A01 T10061008  RH  100%=      5-min Rain = 0
KMES 161100Z 01002KT M01/M01 A3004 RMK A01 T10061008  RH  100%=      5-min Rain = 0
KMES 161105Z 02001KT M01/M01 A3005 RMK A01 T10061007  RH  100%=      5-min Rain = 0
KMES 161110Z 34000KT M00/M01 A3005 RMK A01 T10041005  RH  100%=      5-min Rain = 0
KMES 161115Z 36001KT M00/M00 A3005 RMK A01 T10021004  RH  100%=      5-min Rain = 0
KMES 161120Z 36001KT M00/M00 A3005 RMK A01 T10011003  RH  100%=      5-min Rain = 0
KMES 161125Z 32000KT M00/M00 A3005 RMK A01 T10011002  RH  100%=      5-min Rain = 0
KMES 161130Z 32002KT M00/M00 A3005 RMK A01 T10011003  RH  100%=      5-min Rain = 0
KMES 161135Z 34001KT M00/M01 A3005 RMK A01 T10031005  RH  100%=      5-min Rain = 0
KMES 161140Z 34000KT M00/M01 A3005 RMK A01 T10041006  RH  100%=      5-min Rain = 0
KMES 161145Z 34001KT M01/M01 A3005 RMK A01 T10051007  RH  100%=      5-min Rain = 0
KMES 161150Z 34001KT M01/M01 A3004 RMK A01 T10061007  RH  100%=      5-min Rain = 0
KMES 161155Z 35001KT M01/M01 A3004 RMK A01 T10061007  RH  100%=      5-min Rain = 0
KMES 161200Z 33001KT M01/M01 A3005 RMK A01 T10071008  RH  100%=      5-min Rain = 0
KMES 161205Z 32002KT M01/M01 A3005 RMK A01 T10071008  RH  100%=      5-min Rain = 0
KMES 161210Z 35003KT M01/M01 A3005 RMK A01 T10081009  RH  100%=      5-min Rain = 0
KMES 161215Z 34002KT M01/M01 A3005 RMK A01 T10101012  RH  100%=      5-min Rain = 0
KMES 161220Z 32002KT M01/M01 A3005 RMK A01 T10091010  RH  100%=      5-min Rain = 0
KMES 161225Z 32001KT M01/M01 A3005 RMK A01 T10081009  RH  100%=      5-min Rain = 0
KMES 161230Z 33001KT M01/M01 A3005 RMK A01 T10101011  RH  100%=      5-min Rain = 0
KMES 161235Z 34001KT M01/M02 A3005 RMK A01 T10141016  RH  100%=      5-min Rain = 0
KMES 161240Z 34002KT M02/M02 A3005 RMK A01 T10171018  RH  100%=      5-min Rain = 0
KMES 161245Z 33002KT M02/M02 A3006 RMK A01 T10171018  RH  100%=      5-min Rain = 0
KMES 161250Z 34002KT M02/M02 A3006 RMK A01 T10171018  RH  100%=      5-min Rain = 0
KMES 161255Z 34001KT M02/M02 A3006 RMK A01 T10181019  RH  100%=      5-min Rain = 0
KMES 161300Z 34002KT M02/M02 A3006 RMK A01 T10181019  RH  100%=      5-min Rain = 0
KMES 161305Z 01001KT M02/M02 A3006 RMK A01 T10201021  RH  100%=      5-min Rain = 0
KMES 161310Z 03001KT M02/M02 A3006 RMK A01 T10211022  RH  100%=      5-min Rain = 0
KMES 161315Z 03001KT M02/M02 A3006 RMK A01 T10221023  RH  100%=      5-min Rain = 0
KMES 161320Z 02002KT M02/M02 A3006 RMK A01 T10231024  RH  100%=      5-min Rain = 0
KMES 161325Z 02002KT M02/M02 A3006 RMK A01 T10231024  RH  100%=      5-min Rain = 0
KMES 161330Z 05002KT M02/M02 A3005 RMK A01 T10191020  RH  100%=      5-min Rain = 0
KMES 161335Z 06001KT M02/M02 A3006 RMK A01 T10181019  RH  100%=      5-min Rain = 0
KMES 161340Z 06000KT M02/M02 A3006 RMK A01 T10181019  RH  100%=      5-min Rain = 0
KMES 161345Z 11000KT M02/M02 A3006 RMK A01 T10171018  RH  100%=      5-min Rain = 0
KMES 161350Z 00000KT M02/M02 A3006 RMK A01 T10171018  RH  100%=      5-min Rain = 0
KMES 161355Z 08000KT M02/M02 A3006 RMK A01 T10181019  RH  100%=      5-min Rain = 0
KMES 161400Z 04001KT M02/M02 A3006 RMK A01 T10181019  RH  100%=      5-min Rain = 0
KMES 161405Z 35001KT M02/M02 A3006 RMK A01 T10191020  RH  100%=      5-min Rain = 0
KMES 161410Z 35002KT M02/M02 A3006 RMK A01 T10151016  RH  100%=      5-min Rain = 0
KMES 161415Z 35002KT M01/M01 A3005 RMK A01 T10131014  RH  100%=      5-min Rain = 0
KMES 161420Z 35002KT M01/M01 A3006 RMK A01 T10111013  RH  100%=      5-min Rain = 0
KMES 161425Z 35001KT M01/M01 A3006 RMK A01 T10091011  RH  100%=      5-min Rain = 0
KMES 161430Z 32001KT M01/M01 A3006 RMK A01 T10081009  RH  100%=      5-min Rain = 0
KMES 161435Z 26001KT M01/M01 A3007 RMK A01 T10051007  RH  100%=      5-min Rain = 0
KMES 161440Z 24002KT M01/M01 A3007 RMK A01 T10061007  RH  100%=      5-min Rain = 0
KMES 161445Z 23001KT M01/M01 A3006 RMK A01 T10061008  RH  100%=      5-min Rain = 0
KMES 161450Z 22001KT M01/M01 A3007 RMK A01 T10051006  RH  100%=      5-min Rain = 0
KMES 161455Z 23001KT M00/M00 A3007 RMK A01 T10021004  RH  100%=      5-min Rain = 0
KMES 161500Z 12001KT 00/00 A3007 RMK A01 T00040002  RH  100%=      5-min Rain = 0
KMES 161505Z 13001KT 01/01 A3007 RMK A01 T00070006  RH  100%=      5-min Rain = 0
KMES 161510Z 00000KT 01/01 A3007 RMK A01 T00140012  RH  100%=      5-min Rain = 0
KMES 161515Z 00000KT 02/02 A3007 RMK A01 T00190017  RH  100%=      5-min Rain = 0
KMES 161520Z 18000KT 02/02 A3007 RMK A01 T00200018  RH  100%=      5-min Rain = 0
KMES 161525Z 20000KT 02/02 A3007 RMK A01 T00230021  RH  100%=      5-min Rain = 0
KMES 161530Z 21000KT 02/02 A3007 RMK A01 T00220020  RH  100%=      5-min Rain = 0
KMES 161535Z 00000KT 02/02 A3007 RMK A01 T00240022  RH  100%=      5-min Rain = 0
KMES 161540Z 00000KT 03/03 A3007 RMK A01 T00270025  RH  100%=      5-min Rain = 0
KMES 161545Z 00000KT 03/03 A3007 RMK A01 T00310028  RH  100%=      5-min Rain = 0
KMES 161550Z 15000KT 04/03 A3007 RMK A01 T00360033  RH  100%=      5-min Rain = 0
KMES 161555Z 17001KT 04/04 A3007 RMK A01 T00390035  RH  100%=      5-min Rain = 0
KMES 161600Z 19001KT 04/04 A3007 RMK A01 T00410038  RH  100%=      5-min Rain = 0
KMES 161605Z 20001KT 04/04 A3007 RMK A01 T00430039  RH  099%=      5-min Rain = 0
KMES 161610Z 21001KT 05/04 A3007 RMK A01 T00480044  RH  100%=      5-min Rain = 0
KMES 161615Z 21002KT 05/05 A3007 RMK A01 T00510046  RH  099%=      5-min Rain = 0
KMES 161620Z 20002KT 05/05 A3007 RMK A01 T00520047  RH  098%=      5-min Rain = 0
KMES 161625Z 21002KT 06/05 A3007 RMK A01 T00550049  RH  098%=      5-min Rain = 0
KMES 161630Z 20001KT 06/05 A3007 RMK A01 T00600052  RH  097%=      5-min Rain = 0
KMES 161635Z 20003KT 06/05 A3007 RMK A01 T00640054  RH  096%=      5-min Rain = 0
KMES 161640Z 21003KT 07/05 A3007 RMK A01 T00670053  RH  093%=      5-min Rain = 0
KMES 161645Z 23002KT 07/05 A3007 RMK A01 T00700052  RH  090%=      5-min Rain = 0
KMES 161650Z 20002KT 08/06 A3007 RMK A01 T00750055  RH  089%=      5-min Rain = 0
KMES 161655Z 23003KT 08/05 A3007 RMK A01 T00820053  RH  084%=      5-min Rain = 0
KMES 161700Z 21005KT 09/05 A3007 RMK A01 T00870046  RH  077%=      5-min Rain = 0
KMES 161705Z 20004KT 09/05 A3007 RMK A01 T00930046  RH  074%=      5-min Rain = 0
KMES 161710Z 21005KT 10/05 A3007 RMK A01 T00990045  RH  071%=      5-min Rain = 0
KMES 161715Z 21006KT 10/04 A3006 RMK A01 T01020044  RH  068%=      5-min Rain = 0
KMES 161720Z 20006KT 10/04 A3006 RMK A01 T01040044  RH  068%=      5-min Rain = 0
KMES 161725Z 20006KT 11/04 A3006 RMK A01 T01070044  RH  066%=      5-min Rain = 0
KMES 161730Z 19006KT 11/05 A3006 RMK A01 T01110045  RH  065%=      5-min Rain = 0
KMES 161735Z 20007KT 12/05 A3005 RMK A01 T01170046  RH  063%=      5-min Rain = 0
KMES 161740Z 22009KT 12/04 A3005 RMK A01 T01240043  RH  059%=      5-min Rain = 0
KMES 161745Z 22008KT 13/04 A3004 RMK A01 T01280043  RH  057%=      5-min Rain = 0
KMES 161750Z 21007KT 13/05 A3004 RMK A01 T01300045  RH  057%=      5-min Rain = 0
KMES 161755Z 21006KT 14/05 A3004 RMK A01 T01350047  RH  056%=      5-min Rain = 0
KMES 161800Z 22005KT 14/05 A3004 RMK A01 T01410046  RH  054%=      5-min Rain = 0
KMES 161805Z 21005KT 14/05 A3003 RMK A01 T01440045  RH  053%=      5-min Rain = 0
KMES 161810Z 22005KT 15/05 A3003 RMK A01 T01490046  RH  051%=      5-min Rain = 0
KMES 161815Z 23007KT 16/05 A3002 RMK A01 T01570047  RH  049%=      5-min Rain = 0
KMES 161820Z 22008KT 17/05 A3002 RMK A01 T01660045  RH  046%=      5-min Rain = 0
KMES 161825Z 21007KT 17/05 A3001 RMK A01 T01690046  RH  045%=      5-min Rain = 0
KMES 161830Z 21008KT 17/05 A3001 RMK A01 T01740045  RH  043%=      5-min Rain = 0
KMES 161835Z 20007KT 18/05 A30 RMK A01 T01750045  RH  043%=      5-min Rain = 0
KMES 161840Z 20007KT 18/05 A30 RMK A01 T01780045  RH  042%=      5-min Rain = 0
KMES 161845Z 22008G13KT 18/04 A2999 RMK A01 T01830044  RH  041%=      5-min Rain = 0
KMES 161850Z 22008KT 19/04 A2999 RMK A01 T01880043  RH  039%=      5-min Rain = 0
KMES 161855Z 21008KT 19/04 A2999 RMK A01 T01910043  RH  038%=      5-min Rain = 0
KMES 161900Z 20008G13KT 19/04 A2998 RMK A01 T01930042  RH  038%=      5-min Rain = 0
KMES 161905Z 21008G13KT 19/04 A2997 RMK A01 T01930042  RH  037%=      5-min Rain = 0
KMES 161910Z 20007KT 20/04 A2997 RMK A01 T01980042  RH  036%=      5-min Rain = 0
KMES 161915Z 20007KT 20/04 A2996 RMK A01 T01990041  RH  036%=      5-min Rain = 0
KMES 161920Z 20007G13KT 20/04 A2996 RMK A01 T02010039  RH  035%=      5-min Rain = 0
KMES 161925Z 21008KT 20/04 A2995 RMK A01 T02040039  RH  034%=      5-min Rain = 0
KMES 161930Z 21009KT 20/04 A2994 RMK A01 T02040038  RH  034%=      5-min Rain = 0
KMES 161935Z 20009KT 21/04 A2994 RMK A01 T02070039  RH  034%=      5-min Rain = 0
KMES 161940Z 21006KT 21/04 A2994 RMK A01 T02090037  RH  033%=      5-min Rain = 0
KMES 161945Z 23008G16KT 21/04 A2993 RMK A01 T02130035  RH  032%=      5-min Rain = 0
KMES 161950Z 23013G19KT 22/03 A2993 RMK A01 T02200028  RH  029%=      5-min Rain = 0
KMES 161955Z 24017G24KT 22/02 A2993 RMK A01 T02230022  RH  027%=      5-min Rain = 0
KMES 162000Z 24014G20KT 22/02 A2992 RMK A01 T02230021  RH  027%=      5-min Rain = 0
KMES 162005Z 23015G24KT 23/02 A2992 RMK A01 T02250024  RH  027%=      5-min Rain = 0
KMES 162010Z 22015G21KT 22/02 A2991 RMK A01 T02230024  RH  027%=      5-min Rain = 0
KMES 162015Z 23015G21KT 22/02 A2991 RMK A01 T02230022  RH  027%=      5-min Rain = 0
KMES 162020Z 24015G20KT 22/02 A2991 RMK A01 T02230021  RH  027%=      5-min Rain = 0
KMES 162025Z 23016G24KT 22/02 A2991 RMK A01 T02240021  RH  027%=      5-min Rain = 0
KMES 162030Z 22017G23KT 22/02 A299 RMK A01 T02220019  RH  026%=      5-min Rain = 0
KMES 162035Z 23018G24KT 22/02 A299 RMK A01 T02230015  RH  026%=      5-min Rain = 0
KMES 162040Z 23016KT 23/01 A299 RMK A01 T02250014  RH  025%=      5-min Rain = 0
KMES 162045Z 23016G24KT 23/01 A299 RMK A01 T02270013  RH  025%=      5-min Rain = 0
KMES 162050Z 25014G21KT 23/01 A299 RMK A01 T02270014  RH  025%=      5-min Rain = 0
KMES 162055Z 23018G26KT 23/01 A299 RMK A01 T02260012  RH  025%=      5-min Rain = 0
KMES 162100Z 23016G23KT 22/01 A299 RMK A01 T02240014  RH  025%=      5-min Rain = 0
KMES 162105Z 22018KT 22/01 A299 RMK A01 T02240012  RH  025%=      5-min Rain = 0
KMES 162110Z 23016G25KT 22/01 A299 RMK A01 T02230013  RH  025%=      5-min Rain = 0
KMES 162115Z 24013G18KT 23/01 A299 RMK A01 T02250013  RH  025%=      5-min Rain = 0
KMES 162120Z 23019G30KT 22/02 A299 RMK A01 T02240016  RH  026%=      5-min Rain = 0
KMES 162125Z 23018G24KT 22/02 A299 RMK A01 T02220019  RH  027%=      5-min Rain = 0
KMES 162130Z 22018G23KT 22/02 A299 RMK A01 T02230020  RH  027%=      5-min Rain = 0
KMES 162135Z 23019G26KT 22/02 A2989 RMK A01 T02240017  RH  026%=      5-min Rain = 0
KMES 162140Z 23016G25KT 23/02 A299 RMK A01 T02260017  RH  026%=      5-min Rain = 0
KMES 162145Z 23016G25KT 23/02 A2989 RMK A01 T02270015  RH  025%=      5-min Rain = 0
KMES 162150Z 23016G25KT 23/01 A2989 RMK A01 T02280014  RH  025%=      5-min Rain = 0
KMES 162155Z 23016G21KT 23/02 A299 RMK A01 T02270015  RH  025%=      5-min Rain = 0
KMES 162200Z 22014G20KT 23/02 A299 RMK A01 T02270015  RH  025%=      5-min Rain = 0
KMES 162205Z 23013G19KT 23/02 A299 RMK A01 T02270016  RH  025%=      5-min Rain = 0
KMES 162210Z 24014G19KT 23/01 A2989 RMK A01 T02280007  RH  024%=      5-min Rain = 0
KMES 162215Z 24016G23KT 23/M00 A2989 RMK A01 T02301002  RH  022%=      5-min Rain = 0
KMES 162220Z 24019G27KT 23/M00 A2989 RMK A01 T02281003  RH  022%=      5-min Rain = 0
KMES 162225Z 25015G24KT 23/M01 A2989 RMK A01 T02281005  RH  021%=      5-min Rain = 0
KMES 162230Z 24016G23KT 23/M01 A2989 RMK A01 T02291005  RH  021%=      5-min Rain = 0
KMES 162235Z 24018G24KT 23/M00 A2989 RMK A01 T02271003  RH  022%=      5-min Rain = 0
KMES 162240Z 24017G24KT 23/M00 A2989 RMK A01 T02261002  RH  022%=      5-min Rain = 0
KMES 162245Z 24018G26KT 23/M00 A2989 RMK A01 T02261004  RH  022%=      5-min Rain = 0
KMES 162250Z 24017G25KT 23/M01 A2989 RMK A01 T02251005  RH  022%=      5-min Rain = 0
KMES 162255Z 24016G23KT 22/M01 A2989 RMK A01 T02241008  RH  022%=      5-min Rain = 0
KMES 162300Z 24016G22KT 22/M01 A2989 RMK A01 T02221008  RH  022%=      5-min Rain = 0
KMES 162305Z 24014G20KT 22/M01 A2989 RMK A01 T02201010  RH  022%=      5-min Rain = 0
KMES 162310Z 24017G22KT 22/M01 A2989 RMK A01 T02191010  RH  022%=      5-min Rain = 0
KMES 162315Z 24015G20KT 22/M01 A2989 RMK A01 T02181008  RH  022%=      5-min Rain = 0
KMES 162320Z 23016G22KT 22/M01 A2989 RMK A01 T02161007  RH  023%=      5-min Rain = 0
KMES 162325Z 23015G20KT 21/M01 A2989 RMK A01 T02141006  RH  023%=      5-min Rain = 0
KMES 162330Z 23014G20KT 21/M01 A2989 RMK A01 T02131005  RH  024%=      5-min Rain = 0
KMES 162335Z 23013G19KT 21/M00 A2989 RMK A01 T02111004  RH  024%=      5-min Rain = 0
KMES 162340Z 23013G18KT 21/M00 A2989 RMK A01 T02071002  RH  025%=      5-min Rain = 0
KMES 162345Z 23012KT 21/M00 A2989 RMK A01 T02051001  RH  025%=      5-min Rain = 0
KMES 162350Z 23011G16KT 20/00 A2989 RMK A01 T020200-0  RH  026%=      5-min Rain = 0
KMES 162355Z 24012G17KT 20/M00 A299 RMK A01 T01991001  RH  026%=      5-min Rain = 0
KMES 170000Z 24011G16KT 20/M00 A2989 RMK A01 T02001001  RH  026%=      5-min Rain = 0
KMES 170005Z 23011G16KT 20/M00 A2989 RMK A01 T01971001  RH  027%=      5-min Rain = 0
KMES 170010Z 24011KT 20/00 A2989 RMK A01 T019800-0  RH  027%=      5-min Rain = 0
KMES 170015Z 23010KT 20/00 A2989 RMK A01 T01960001  RH  027%=      5-min Rain = 0
KMES 170020Z 23010G16KT 19/00 A2989 RMK A01 T01910001  RH  028%=      5-min Rain = 0
KMES 170025Z 23010KT 19/00 A2989 RMK A01 T01890002  RH  029%=      5-min Rain = 0
KMES 170030Z 23010KT 19/00 A299 RMK A01 T01860001  RH  029%=      5-min Rain = 0
KMES 170035Z 23009KT 18/00 A299 RMK A01 T01830002  RH  030%=      5-min Rain = 0
KMES 170040Z 23008KT 18/00 A299 RMK A01 T01780002  RH  031%=      5-min Rain = 0
KMES 170045Z 22007KT 18/00 A299 RMK A01 T01770001  RH  031%=      5-min Rain = 0
KMES 170050Z 22007KT 18/00 A299 RMK A01 T01750001  RH  031%=      5-min Rain = 0
KMES 170055Z 22007KT 17/00 A2991 RMK A01 T01720001  RH  032%=      5-min Rain = 0
KMES 170100Z 22007KT 17/00 A2991 RMK A01 T01690001  RH  032%=      5-min Rain = 0
KMES 170105Z 23007KT 16/00 A2991 RMK A01 T01640001  RH  033%=      5-min Rain = 0
KMES 170110Z 23006KT 16/00 A2991 RMK A01 T01580002  RH  035%=      5-min Rain = 0
KMES 170115Z 23006KT 16/00 A2992 RMK A01 T01550003  RH  036%=      5-min Rain = 0
KMES 170120Z 23006KT 15/00 A2992 RMK A01 T01520003  RH  037%=      5-min Rain = 0
KMES 170125Z 24005KT 15/00 A2992 RMK A01 T01500002  RH  037%=      5-min Rain = 0
KMES 170130Z 24006KT 15/00 A2992 RMK A01 T015400-0  RH  035%=      5-min Rain = 0
KMES 170135Z 24006KT 16/M00 A2992 RMK A01 T01551001  RH  035%=      5-min Rain = 0
KMES 170140Z 24006KT 15/00 A2992 RMK A01 T01510000  RH  036%=      5-min Rain = 0
KMES 170145Z 24005KT 14/00 A2993 RMK A01 T01430002  RH  039%=      5-min Rain = 0
KMES 170150Z 23005KT 14/00 A2993 RMK A01 T01360004  RH  041%=      5-min Rain = 0
KMES 170155Z 25004KT 13/00 A2993 RMK A01 T01310002  RH  042%=      5-min Rain = 0
KMES 170200Z 25003KT 13/00 A2993 RMK A01 T01320002  RH  041%=      5-min Rain = 0
KMES 170205Z 25005KT 13/00 A2994 RMK A01 T01330001  RH  041%=      5-min Rain = 0
KMES 170210Z 25005KT 14/00 A2993 RMK A01 T013500-0  RH  040%=      5-min Rain = 0
KMES 170215Z 24006KT 13/00 A2993 RMK A01 T013400-0  RH  040%=      5-min Rain = 0
KMES 170220Z 24007KT 14/M00 A2994 RMK A01 T01371001  RH  039%=      5-min Rain = 0
KMES 170225Z 24007KT 14/M00 A2993 RMK A01 T01411003  RH  038%=      5-min Rain = 0
KMES 170230Z 24007KT 14/M00 A2993 RMK A01 T01441003  RH  037%=      5-min Rain = 0
KMES 170235Z 24006KT 15/M00 A2993 RMK A01 T01451004  RH  036%=      5-min Rain = 0
KMES 170240Z 25006KT 15/M00 A2993 RMK A01 T01461004  RH  036%=      5-min Rain = 0
KMES 170245Z 25006KT 15/M00 A2993 RMK A01 T01471004  RH  036%=      5-min Rain = 0
KMES 170250Z 25006KT 15/M00 A2993 RMK A01 T01461004  RH  036%=      5-min Rain = 0
KMES 170255Z 25006KT 14/M00 A2993 RMK A01 T01441004  RH  037%=      5-min Rain = 0
KMES 170300Z 25006KT 14/M00 A2993 RMK A01 T01431004  RH  037%=      5-min Rain = 0
KMES 170305Z 26006KT 14/M00 A2993 RMK A01 T01441004  RH  037%=      5-min Rain = 0
KMES 170310Z 26006KT 14/M00 A2993 RMK A01 T01441004  RH  037%=      5-min Rain = 0
KMES 170315Z 26007G12KT 14/M01 A2993 RMK A01 T01441005  RH  036%=      5-min Rain = 0
KMES 170320Z 27007KT 15/M01 A2993 RMK A01 T01461006  RH  036%=      5-min Rain = 0
KMES 170325Z 26008KT 15/M01 A2993 RMK A01 T01481008  RH  035%=      5-min Rain = 0
KMES 170330Z 26008KT 15/M01 A2993 RMK A01 T01481008  RH  035%=      5-min Rain = 0
KMES 170335Z 26008G13KT 15/M01 A2993 RMK A01 T01481009  RH  034%=      5-min Rain = 0
KMES 170340Z 26009KT 15/M01 A2993 RMK A01 T01481010  RH  034%=      5-min Rain = 0
KMES 170345Z 26009KT 15/M01 A2993 RMK A01 T01491011  RH  034%=      5-min Rain = 0
KMES 170350Z 27009G14KT 15/M01 A2993 RMK A01 T01481011  RH  034%=      5-min Rain = 0
KMES 170355Z 26010KT 15/M01 A2993 RMK A01 T01481012  RH  034%=      5-min Rain = 0
KMES 170400Z 26008G13KT 15/M01 A2993 RMK A01 T01471012  RH  034%=      5-min Rain = 0
KMES 170405Z 27008KT 15/M01 A2993 RMK A01 T01451012  RH  034%=      5-min Rain = 0
KMES 170410Z 27008G13KT 15/M01 A2994 RMK A01 T01451012  RH  034%=      5-min Rain = 0
KMES 170415Z 26008KT 15/M01 A2994 RMK A01 T01451013  RH  034%=      5-min Rain = 0
KMES 170420Z 26007KT 14/M01 A2995 RMK A01 T01441012  RH  034%=      5-min Rain = 0
KMES 170425Z 26008G13KT 14/M01 A2995 RMK A01 T01441012  RH  034%=      5-min Rain = 0
KMES 170430Z 26009KT 14/M01 A2995 RMK A01 T01441013  RH  034%=      5-min Rain = 0
KMES 170435Z 26008G13KT 15/M01 A2995 RMK A01 T01451013  RH  034%=      5-min Rain = 0
KMES 170440Z 26008KT 14/M01 A2996 RMK A01 T01441013  RH  034%=      5-min Rain = 0
KMES 170445Z 26008KT 14/M01 A2996 RMK A01 T01431012  RH  035%=      5-min Rain = 0
KMES 170450Z 26008KT 14/M01 A2996 RMK A01 T01411012  RH  035%=      5-min Rain = 0
KMES 170455Z 26009KT 14/M01 A2996 RMK A01 T01411012  RH  035%=      5-min Rain = 0
KMES 170500Z 26009G14KT 14/M01 A2996 RMK A01 T01411012  RH  035%=      5-min Rain = 0
KMES 170505Z 27008G15KT 14/M01 A2996 RMK A01 T01401012  RH  035%=      5-min Rain = 0
KMES 170510Z 27007G12KT 14/M01 A2996 RMK A01 T01391012  RH  036%=      5-min Rain = 0
KMES 170515Z 27009G14KT 14/M01 A2997 RMK A01 T01381012  RH  036%=      5-min Rain = 0
KMES 170520Z 28008KT 14/M01 A2997 RMK A01 T01371012  RH  036%=      5-min Rain = 0
KMES 170525Z 28007KT 13/M01 A2997 RMK A01 T01341011  RH  037%=      5-min Rain = 0
KMES 170530Z 27007G12KT 13/M01 A2997 RMK A01 T01331011  RH  037%=      5-min Rain = 0
KMES 170535Z 28007KT 13/M01 A2997 RMK A01 T01331011  RH  037%=      5-min Rain = 0
KMES 170540Z 29008KT 13/M01 A2998 RMK A01 T01341011  RH  037%=      5-min Rain = 0
KMES 170545Z 29010KT 14/M01 A2998 RMK A01 T01401013  RH  035%=      5-min Rain = 0
KMES 170550Z 30012G19KT 15/M01 A2999 RMK A01 T01451014  RH  034%=      5-min Rain = 0
KMES 170555Z 29011G16KT 15/M01 A2999 RMK A01 T01461014  RH  033%=      5-min Rain = 0

Page generated in 0.0092 seconds.